Time;durP1;ratioP1;P1;durP2;ratioP2;P2;SDS_P1;SDS_P2;PMS_P1;PMS_P2;Temp;Humidity;BMP_temperature;BMP_pressure;BME280_temperature;BME280_humidity;BME280_pressure;Samples;Min_cycle;Max_cycle;Signal;HPM_P1;HPM_P2
2023/04/18 00:00:05;;;;;;;;;;;;;;;17.57;50.04;94526.66;4952706;29;19930;-62
2023/04/18 00:02:38;;;;;;;;;;;;;;;17.45;49.87;94535.16;4953113;29;20400;-67
2023/04/18 00:05:06;;;;;;;;;;;;;;;17.59;50.04;94529.78;4951963;28;19934;-64
2023/04/18 00:07:34;;;;;;;;;;;;;;;17.56;49.77;94530.38;4951570;29;19930;-67
2023/04/18 00:10:02;;;;;;;;;;;;;;;17.69;49.57;94534.78;4952626;29;19926;-65
2023/04/18 00:12:28;;;;;;;;;;;;;;;17.69;48.77;94534.78;4952972;29;20306;-66
2023/04/18 00:14:57;;;;;;;;;;;;;;;17.34;49.77;94528.56;4951169;29;20037;-64
2023/04/18 00:17:26;;;;;;;;;;;;;;;17.12;50.19;94545.28;4952167;28;19978;-64
2023/04/18 00:19:55;;;;;;;;;;;;;;;17.13;50.47;94516.97;4952545;29;19930;-65
2023/04/18 00:22:22;;;;;;;;;;;;;;;17.27;50.88;94528.22;4952804;28;20405;-61
2023/04/18 00:24:49;;;;;;;;;;;;;;;17.31;51.10;94534.47;4951790;29;19949;-62
2023/04/18 00:27:20;;;;;;;;;;;;;;;17.13;51.63;94530.19;4952384;28;19981;-67
2023/04/18 00:29:47;;;;;;;;;;;;;;;17.35;51.02;94534.66;4935553;29;19926;-66
2023/04/18 00:32:15;;;;;;;;;;;;;;;17.39;51.22;94530.31;4935380;29;19930;-66
2023/04/18 00:34:42;;;;;;;;;;;;;;;17.48;50.74;94533.81;4950705;28;20028;-65
2023/04/18 00:37:08;;;;;;;;;;;;;;;17.52;50.72;94529.44;4950497;28;20764;-63
2023/04/18 00:39:35;;;;;;;;;;;;;;;17.35;50.65;94529.34;4951161;28;19937;-63
2023/04/18 00:42:02;;;;;;;;;;;;;;;17.08;51.80;94531.09;4943609;29;20305;-66
2023/04/18 00:44:29;;;;;;;;;;;;;;;17.22;51.35;94526.47;4951070;28;19930;-64
2023/04/18 00:46:56;;;;;;;;;;;;;;;17.06;51.89;94538.56;4951916;29;19990;-66
2023/04/18 00:49:24;;;;;;;;;;;;;;;17.07;51.96;94534.84;4934940;29;19932;-69
2023/04/18 00:51:52;;;;;;;;;;;;;;;17.18;51.36;94520.25;4952550;29;19965;-66
2023/04/18 00:54:20;;;;;;;;;;;;;;;17.10;51.85;94517.53;4938371;29;19953;-65
2023/04/18 00:56:49;;;;;;;;;;;;;;;17.00;52.10;94515.97;4958062;28;19926;-65
2023/04/18 00:59:17;;;;;;;;;;;;;;;17.12;51.04;94515.38;4953316;29;19942;-67
2023/04/18 01:01:44;;;;;;;;;;;;;;;17.07;51.52;94518.97;4954307;28;19994;-69
2023/04/18 01:04:11;;;;;;;;;;;;;;;17.22;50.54;94509.84;4951317;28;19939;-73
2023/04/18 01:06:39;;;;;;;;;;;;;;;17.20;50.62;94512.00;4933015;29;19934;-70
2023/04/18 01:09:06;;;;;;;;;;;;;;;17.23;51.18;94512.16;4952022;29;19950;-67
2023/04/18 01:11:32;;;;;;;;;;;;;;;17.18;51.10;94504.38;4952192;29;19937;-66
2023/04/18 01:14:03;;;;;;;;;;;;;;;17.26;51.50;94510.00;4935743;29;20062;-66
2023/04/18 01:16:35;;;;;;;;;;;;;;;17.31;51.78;94504.56;4933884;29;19926;-67
2023/04/18 01:19:03;;;;;;;;;;;;;;;17.17;51.53;94508.09;4951729;29;19927;-69
2023/04/18 01:21:32;;;;;;;;;;;;;;;17.08;50.91;94504.63;4941002;28;19937;-66
2023/04/18 01:24:03;;;;;;;;;;;;;;;17.04;52.11;94508.97;4944500;28;20484;-63
2023/04/18 01:29:16;;;;;;;;;;;;;;;17.11;52.19;94514.63;4936138;29;19946;-69
2023/04/18 01:31:42;;;;;;;;;;;;;;;17.27;52.24;94506.25;4951441;28;19930;-65
2023/04/18 01:34:10;;;;;;;;;;;;;;;17.09;51.88;94511.50;4950637;28;19930;-65
2023/04/18 01:36:40;;;;;;;;;;;;;;;17.11;51.98;94509.31;4931554;29;19930;-71
2023/04/18 01:39:09;;;;;;;;;;;;;;;17.19;52.14;94511.22;4934415;29;19930;-66
2023/04/18 01:41:36;;;;;;;;;;;;;;;17.09;51.92;94510.72;4934239;29;19938;-65
2023/04/18 01:44:03;;;;;;;;;;;;;;;17.18;52.37;94504.38;4949875;28;20042;-67
2023/04/18 01:46:30;;;;;;;;;;;;;;;17.15;52.31;94501.56;4949995;28;19930;-64
2023/04/18 01:48:59;;;;;;;;;;;;;;;17.06;52.43;94500.75;4951017;29;20017;-71
2023/04/18 01:51:27;;;;;;;;;;;;;;;17.29;52.46;94499.56;4950913;29;19953;-67
2023/04/18 01:53:54;;;;;;;;;;;;;;;17.33;51.79;94505.03;4951486;28;19933;-64
2023/04/18 01:56:21;;;;;;;;;;;;;;;17.28;51.99;94492.69;4949024;29;19934;-69
2023/04/18 01:58:47;;;;;;;;;;;;;;;17.07;52.53;94497.00;4948319;29;19966;-65
2023/04/18 02:01:14;;;;;;;;;;;;;;;17.14;52.21;94503.41;4933402;29;19930;-65
2023/04/18 02:03:42;;;;;;;;;;;;;;;17.03;52.36;94496.81;4934276;28;20420;-62
2023/04/18 02:06:11;;;;;;;;;;;;;;;17.15;52.36;94504.97;4949996;28;19930;-68
2023/04/18 02:08:38;;;;;;;;;;;;;;;17.15;52.17;94502.31;4932400;29;19937;-65
2023/04/18 02:11:04;;;;;;;;;;;;;;;16.95;52.34;94516.06;4950668;29;19927;-67
2023/04/18 02:13:31;;;;;;;;;;;;;;;17.05;52.60;94504.44;4932184;28;19986;-64
2023/04/18 02:15:58;;;;;;;;;;;;;;;16.88;53.40;94510.44;4948493;29;19938;-66
2023/04/18 02:18:25;;;;;;;;;;;;;;;17.01;52.33;94504.28;4950097;29;19934;-69
2023/04/18 02:20:52;;;;;;;;;;;;;;;17.13;52.73;94507.13;4943191;29;20417;-67
2023/04/18 02:23:20;;;;;;;;;;;;;;;16.99;52.46;94506.44;4948798;28;19958;-69
2023/04/18 02:25:47;;;;;;;;;;;;;;;17.00;52.97;94513.31;4936174;29;20016;-67
2023/04/18 02:28:16;;;;;;;;;;;;;;;16.68;54.38;94512.78;4950573;29;20484;-61
2023/04/18 02:30:42;;;;;;;;;;;;;;;16.81;52.93;94498.72;4950708;29;19930;-70
2023/04/18 02:33:09;;;;;;;;;;;;;;;16.93;53.18;94514.84;4949949;28;19930;-69
2023/04/18 02:35:36;;;;;;;;;;;;;;;17.10;52.62;94515.69;4934967;29;19942;-66
2023/04/18 02:38:03;;;;;;;;;;;;;;;17.07;53.11;94526.91;4948640;29;19977;-65
2023/04/18 02:40:30;;;;;;;;;;;;;;;17.00;52.57;94526.56;4933341;29;19934;-67
2023/04/18 02:42:58;;;;;;;;;;;;;;;16.81;53.31;94520.69;4932188;29;19931;-65
2023/04/18 02:45:24;;;;;;;;;;;;;;;16.91;53.29;94520.44;4947500;28;19962;-69
2023/04/18 02:47:52;;;;;;;;;;;;;;;16.96;52.88;94517.66;4943160;28;19937;-66
2023/04/18 02:50:22;;;;;;;;;;;;;;;16.74;53.91;94520.31;4932746;29;20422;-65
2023/04/18 02:52:50;;;;;;;;;;;;;;;16.68;53.93;94521.53;4948617;28;19989;-64
2023/04/18 02:55:19;;;;;;;;;;;;;;;17.04;53.02;94521.44;4930605;29;20026;-65
2023/04/18 02:57:47;;;;;;;;;;;;;;;16.95;53.15;94521.38;4933414;29;19930;-64
2023/04/18 03:00:36;;;;;;;;;;;;;;;16.89;53.43;94524.47;4947745;28;20034;-66
2023/04/18 03:03:35;;;;;;;;;;;;;;;17.06;52.78;94524.56;4948568;29;19930;-60
2023/04/18 03:06:22;;;;;;;;;;;;;;;17.03;53.23;94520.66;4935234;29;19931;-67
2023/04/18 03:08:51;;;;;;;;;;;;;;;17.02;53.48;94521.72;4947085;28;19989;-62
2023/04/18 03:11:18;;;;;;;;;;;;;;;17.05;52.94;94517.69;4933650;29;19927;-66
2023/04/18 03:13:45;;;;;;;;;;;;;;;16.76;53.79;94523.44;4933322;29;19966;-70
2023/04/18 03:16:13;;;;;;;;;;;;;;;16.73;54.10;94529.34;4930357;29;19969;-65
2023/04/18 03:18:41;;;;;;;;;;;;;;;17.11;52.74;94535.81;4948277;28;19937;-68
2023/04/18 03:21:08;;;;;;;;;;;;;;;16.94;53.43;94535.69;4932930;29;20029;-73
2023/04/18 03:23:35;;;;;;;;;;;;;;;16.69;54.22;94544.28;4932770;29;19934;-65
2023/04/18 03:26:05;;;;;;;;;;;;;;;16.82;54.10;94538.09;4930754;29;20054;-64
2023/04/18 03:28:33;;;;;;;;;;;;;;;16.89;53.71;94543.78;4931414;29;19933;-67
2023/04/18 03:31:00;;;;;;;;;;;;;;;16.80;53.43;94550.88;4949345;28;19946;-69
2023/04/18 03:33:28;;;;;;;;;;;;;;;16.61;54.08;94547.63;4932408;29;20310;-67
2023/04/18 03:36:05;;;;;;;;;;;;;;;16.70;54.29;94547.69;4945825;28;20286;-68
2023/04/18 03:38:32;;;;;;;;;;;;;;;16.75;53.93;94558.91;4948863;28;19930;-69
2023/04/18 03:40:59;;;;;;;;;;;;;;;16.97;53.10;94555.50;4933449;29;19934;-62
2023/04/18 03:43:31;;;;;;;;;;;;;;;16.87;53.71;94551.22;4950475;28;19941;-67
2023/04/18 03:45:58;;;;;;;;;;;;;;;16.12;55.57;94552.94;4947485;28;19931;-69
2023/04/18 03:48:26;;;;;;;;;;;;;;;16.64;53.90;94549.66;4933161;29;19930;-64
2023/04/18 03:50:53;;;;;;;;;;;;;;;16.65;54.38;94559.19;4932228;29;19993;-65
2023/04/18 03:53:20;;;;;;;;;;;;;;;16.83;53.78;94550.25;4948812;28;20465;-66
2023/04/18 03:55:47;;;;;;;;;;;;;;;16.76;53.98;94549.91;4933701;28;19930;-69
2023/04/18 03:58:22;;;;;;;;;;;;;;;16.63;53.95;94550.75;4935897;29;19937;-64
2023/04/18 04:00:50;;;;;;;;;;;;;;;16.65;54.01;94553.88;4949531;28;19977;-68
2023/04/18 04:03:18;;;;;;;;;;;;;;;16.77;53.94;94558.63;4931403;29;19934;-64
2023/04/18 04:05:45;;;;;;;;;;;;;;;16.88;53.63;94554.63;4937455;29;19934;-62
2023/04/18 04:08:15;;;;;;;;;;;;;;;16.83;53.91;94562.72;4953346;29;19930;-63
2023/04/18 04:10:44;;;;;;;;;;;;;;;16.49;54.19;94559.81;4936169;29;20307;-70
2023/04/18 04:13:10;;;;;;;;;;;;;;;16.64;53.87;94562.88;4935504;29;19926;-67
2023/04/18 04:15:39;;;;;;;;;;;;;;;16.84;53.37;94557.09;4936622;29;19936;-68
2023/04/18 04:18:08;;;;;;;;;;;;;;;16.75;54.01;94558.16;4935356;29;20015;-71
2023/04/18 04:20:38;;;;;;;;;;;;;;;16.90;53.74;94566.50;4953465;29;19946;-70
2023/04/18 04:23:12;;;;;;;;;;;;;;;16.70;54.09;94561.69;4949394;28;19931;-70
2023/04/18 04:25:41;;;;;;;;;;;;;;;16.87;53.91;94567.09;4936221;28;19993;-67
2023/04/18 04:28:21;;;;;;;;;;;;;;;16.79;53.65;94565.19;4936019;29;19935;-72
2023/04/18 04:30:54;;;;;;;;;;;;;;;16.16;55.29;94575.06;4936298;29;19970;-66
2023/04/18 04:33:24;;;;;;;;;;;;;;;16.34;54.40;94574.16;4938102;29;19985;-67
2023/04/18 04:35:54;;;;;;;;;;;;;;;16.05;55.45;94571.09;4936136;29;19931;-63
2023/04/18 04:38:21;;;;;;;;;;;;;;;16.49;54.17;94570.41;4935065;28;19934;-70
2023/04/18 04:40:51;;;;;;;;;;;;;;;16.54;54.45;94576.34;4936094;28;19934;-68
2023/04/18 04:43:19;;;;;;;;;;;;;;;16.67;54.08;94577.38;4952657;29;20025;-67
2023/04/18 04:45:51;;;;;;;;;;;;;;;16.76;54.51;94575.59;4933761;29;20295;-67
2023/04/18 04:48:23;;;;;;;;;;;;;;;16.80;53.68;94582.63;4933218;29;19941;-69
2023/04/18 04:50:52;;;;;;;;;;;;;;;16.94;53.52;94580.69;4934428;29;19927;-67
2023/04/18 04:53:19;;;;;;;;;;;;;;;16.88;53.54;94587.19;4934578;29;20441;-68
2023/04/18 04:55:46;;;;;;;;;;;;;;;16.95;53.42;94592.84;4935636;29;19926;-65
2023/04/18 04:58:15;;;;;;;;;;;;;;;17.12;53.15;94585.00;4934965;29;19931;-64
2023/04/18 05:01:08;;;;;;;;;;;;;;;16.96;53.92;94583.81;4942587;29;19934;-69
2023/04/18 05:03:37;;;;;;;;;;;;;;;15.97;54.87;94595.56;4931819;29;19931;-63
2023/04/18 05:06:04;;;;;;;;;;;;;;;16.49;54.52;94594.22;4927172;29;20290;-68
2023/04/18 05:08:31;;;;;;;;;;;;;;;16.74;54.35;94599.69;4951875;28;19989;-68
2023/04/18 05:10:57;;;;;;;;;;;;;;;16.84;54.34;94599.44;4953023;29;19934;-66
2023/04/18 05:13:24;;;;;;;;;;;;;;;16.84;54.09;94594.16;4952265;29;20009;-68
2023/04/18 05:15:51;;;;;;;;;;;;;;;16.89;54.04;94596.69;4935503;29;19930;-68
2023/04/18 05:18:18;;;;;;;;;;;;;;;16.62;54.71;94596.81;4952500;29;20349;-66
2023/04/18 05:20:45;;;;;;;;;;;;;;;16.65;54.96;94606.78;4955654;28;20025;-62
2023/04/18 05:23:11;;;;;;;;;;;;;;;16.94;54.03;94604.50;4954103;29;20396;-64
2023/04/18 05:25:38;;;;;;;;;;;;;;;16.86;54.80;94594.63;4952947;28;19980;-66
2023/04/18 05:28:07;;;;;;;;;;;;;;;17.08;53.99;94594.63;4951674;29;20016;-67
2023/04/18 05:30:33;;;;;;;;;;;;;;;17.05;54.28;94600.53;4952595;28;19997;-66
2023/04/18 05:33:01;;;;;;;;;;;;;;;17.02;53.90;94606.41;4950876;28;19931;-64
2023/04/18 05:35:28;;;;;;;;;;;;;;;16.71;54.77;94600.31;4949238;28;19935;-70
2023/04/18 05:37:54;;;;;;;;;;;;;;;16.92;54.10;94609.31;4950015;28;19930;-72
2023/04/18 05:40:21;;;;;;;;;;;;;;;17.14;54.11;94590.78;4950765;29;20025;-71
2023/04/18 05:42:48;;;;;;;;;;;;;;;16.80;53.81;94601.16;4950422;29;19931;-72
2023/04/18 05:45:14;;;;;;;;;;;;;;;16.59;55.19;94607.97;4952058;29;19988;-71
2023/04/18 05:47:41;;;;;;;;;;;;;;;16.62;55.50;94610.03;4951585;29;19934;-70
2023/04/18 05:50:08;;;;;;;;;;;;;;;16.95;54.38;94610.59;4952341;29;19931;-70
2023/04/18 05:52:36;;;;;;;;;;;;;;;16.85;53.78;94616.91;4951494;28;19927;-70
2023/04/18 05:55:04;;;;;;;;;;;;;;;16.87;54.91;94617.38;4952481;28;20040;-69
2023/04/18 05:57:31;;;;;;;;;;;;;;;16.51;54.76;94613.22;4951863;28;19966;-69
2023/04/18 05:59:57;;;;;;;;;;;;;;;16.76;54.35;94613.41;4952507;29;20776;-72
2023/04/18 06:02:24;;;;;;;;;;;;;;;17.02;54.07;94606.41;4951491;29;19978;-69
2023/04/18 06:04:51;;;;;;;;;;;;;;;17.17;53.60;94611.34;4952424;28;19949;-68
2023/04/18 06:07:18;;;;;;;;;;;;;;;17.20;53.98;94613.41;4951749;28;19931;-67
2023/04/18 06:09:45;;;;;;;;;;;;;;;17.23;53.98;94614.66;4952950;28;20357;-66
2023/04/18 06:12:12;;;;;;;;;;;;;;;17.47;53.39;94611.66;4952498;28;19985;-62
2023/04/18 06:14:39;;;;;;;;;;;;;;;17.40;53.64;94616.63;4951695;29;19930;-71
2023/04/18 06:17:06;;;;;;;;;;;;;;;17.48;53.00;94603.44;4951285;28;19938;-65
2023/04/18 06:19:33;;;;;;;;;;;;;;;17.14;53.78;94608.53;4951896;28;19930;-70
2023/04/18 06:22:00;;;;;;;;;;;;;;;17.48;52.75;94602.66;4950867;29;19927;-67
2023/04/18 06:24:26;;;;;;;;;;;;;;;17.31;53.17;94605.97;4951962;28;19926;-68
2023/04/18 06:26:56;;;;;;;;;;;;;;;17.26;53.52;94610.63;4952103;28;19965;-69
2023/04/18 06:29:25;;;;;;;;;;;;;;;17.46;53.24;94615.41;4952637;29;19938;-67
2023/04/18 06:31:52;;;;;;;;;;;;;;;17.38;53.68;94613.47;4951339;28;20470;-67
2023/04/18 06:34:19;;;;;;;;;;;;;;;16.98;54.79;94610.78;4952257;29;19934;-67
2023/04/18 06:36:46;;;;;;;;;;;;;;;17.23;53.63;94612.78;4951424;29;19969;-72
2023/04/18 06:39:13;;;;;;;;;;;;;;;17.42;52.79;94609.16;4951511;28;19926;-68
2023/04/18 06:41:39;;;;;;;;;;;;;;;17.36;53.39;94611.13;4951258;29;20021;-66
2023/04/18 06:44:06;;;;;;;;;;;;;;;17.37;53.36;94611.94;4951794;28;19926;-64
2023/04/18 06:46:33;;;;;;;;;;;;;;;17.16;54.30;94607.16;4951288;29;20665;-68
2023/04/18 06:49:00;;;;;;;;;;;;;;;17.26;53.64;94610.63;4950693;28;20393;-66
2023/04/18 06:51:27;;;;;;;;;;;;;;;17.26;52.76;94610.63;4951820;29;19926;-66
2023/04/18 06:53:53;;;;;;;;;;;;;;;17.31;53.07;94607.84;4951338;29;19930;-66
2023/04/18 06:56:20;;;;;;;;;;;;;;;16.60;52.78;94614.06;4951268;29;19937;-69
2023/04/18 06:58:47;;;;;;;;;;;;;;;16.58;52.63;94611.72;4951271;29;19927;-63
2023/04/18 07:01:14;;;;;;;;;;;;;;;16.83;53.17;94623.56;4952137;29;19930;-71
2023/04/18 07:03:41;;;;;;;;;;;;;;;16.70;53.78;94622.53;4951087;28;19930;-66
2023/04/18 07:06:09;;;;;;;;;;;;;;;17.06;53.21;94612.69;4951884;28;19930;-72
2023/04/18 07:08:36;;;;;;;;;;;;;;;17.43;51.82;94616.00;4950884;29;19962;-71
2023/04/18 07:11:04;;;;;;;;;;;;;;;16.79;53.00;94628.69;4951300;28;19986;-68
2023/04/18 07:13:30;;;;;;;;;;;;;;;17.19;53.16;94622.41;4950553;29;20410;-67
2023/04/18 07:15:57;;;;;;;;;;;;;;;17.30;53.47;94627.47;4951522;29;20060;-68
2023/04/18 07:18:24;;;;;;;;;;;;;;;17.60;51.93;94624.06;4951315;28;20069;-70
2023/04/18 07:21:06;;;;;;;;;;;;;;;17.33;51.39;94629.50;4951470;28;19926;-67
2023/04/18 07:23:33;;;;;;;;;;;;;;;17.16;52.82;94623.03;4950842;28;20026;-64
2023/04/18 07:26:01;;;;;;;;;;;;;;;16.61;52.16;94626.19;4951758;29;20361;-71
2023/04/18 07:28:28;;;;;;;;;;;;;;;17.20;50.45;94623.22;4951178;29;19954;-64
2023/04/18 07:30:55;;;;;;;;;;;;;;;17.25;51.01;94623.06;4955185;28;19937;-61
2023/04/18 07:33:22;;;;;;;;;;;;;;;17.46;51.34;94628.66;4957949;28;19932;-71
2023/04/18 07:35:51;;;;;;;;;;;;;;;17.48;49.34;94624.63;4954758;29;19931;-71
2023/04/18 07:38:17;;;;;;;;;;;;;;;17.63;48.16;94620.78;4954089;28;19927;-62
2023/04/18 07:40:44;;;;;;;;;;;;;;;17.59;47.76;94622.50;4954332;28;20065;-69
2023/04/18 07:43:12;;;;;;;;;;;;;;;17.51;46.62;94624.03;4954531;29;19934;-68
2023/04/18 07:45:41;;;;;;;;;;;;;;;16.97;46.40;94626.97;4954825;28;20017;-65
2023/04/18 07:48:08;;;;;;;;;;;;;;;17.50;47.12;94627.00;4959174;28;20421;-71
2023/04/18 07:50:35;;;;;;;;;;;;;;;17.28;46.06;94613.75;4954734;29;20033;-66
2023/04/18 07:53:02;;;;;;;;;;;;;;;17.16;45.07;94623.03;4954123;29;19964;-72
2023/04/18 07:55:29;;;;;;;;;;;;;;;17.11;44.18;94630.31;4954594;29;20282;-68
2023/04/18 07:57:56;;;;;;;;;;;;;;;17.77;44.71;94627.56;4954350;29;19930;-64
2023/04/18 08:00:23;;;;;;;;;;;;;;;17.49;44.56;94630.72;4954117;29;20029;-69
2023/04/18 08:02:49;;;;;;;;;;;;;;;17.69;45.66;94630.19;4953978;28;19931;-69
2023/04/18 08:05:20;;;;;;;;;;;;;;;17.84;46.11;94630.56;4954200;28;20029;-68
2023/04/18 08:07:46;;;;;;;;;;;;;;;18.00;45.29;94630.91;4953950;28;20000;-66
2023/04/18 08:10:13;;;;;;;;;;;;;;;18.01;44.19;94637.81;4954014;29;19937;-64
2023/04/18 08:12:41;;;;;;;;;;;;;;;17.86;43.87;94624.94;4953867;29;19930;-63
2023/04/18 08:15:08;;;;;;;;;;;;;;;18.10;43.77;94641.25;4953913;28;20287;-72
2023/04/18 08:17:35;;;;;;;;;;;;;;;17.98;44.29;94638.41;4953834;28;20381;-67
2023/04/18 08:20:05;;;;;;;;;;;;;;;17.83;44.95;94630.84;4953879;29;19967;-64
2023/04/18 08:22:32;;;;;;;;;;;;;;;18.05;45.78;94614.88;4953691;29;20027;-62
2023/04/18 08:25:00;;;;;;;;;;;;;;;17.94;43.46;94638.22;4953726;28;19937;-66
2023/04/18 08:27:31;;;;;;;;;;;;;;;18.35;44.06;94632.56;4953655;29;19930;-68
2023/04/18 08:29:59;;;;;;;;;;;;;;;18.28;42.59;94629.59;4953880;28;19941;-66
2023/04/18 08:32:26;;;;;;;;;;;;;;;18.62;43.52;94627.00;4953336;28;19926;-64
2023/04/18 08:34:52;;;;;;;;;;;;;;;18.46;42.96;94628.56;4953466;28;20049;-67
2023/04/18 08:37:19;;;;;;;;;;;;;;;18.23;42.86;94635.03;4953757;29;19931;-68
2023/04/18 08:39:46;;;;;;;;;;;;;;;18.71;43.14;94632.31;4953204;29;20009;-63
2023/04/18 08:42:15;;;;;;;;;;;;;;;18.45;42.26;94631.53;4953898;28;19949;-65
2023/04/18 08:44:41;;;;;;;;;;;;;;;18.88;41.82;94619.84;4941384;29;20390;-64
2023/04/18 08:47:09;;;;;;;;;;;;;;;18.94;40.98;94626.53;4953990;29;19934;-66
2023/04/18 08:49:36;;;;;;;;;;;;;;;19.23;40.59;94616.03;4953260;29;19966;-65
2023/04/18 08:52:08;;;;;;;;;;;;;;;19.52;40.77;94611.94;4952940;28;19964;-64
2023/04/18 08:54:36;;;;;;;;;;;;;;;19.52;40.79;94615.38;4953492;29;19930;-69
2023/04/18 08:57:07;;;;;;;;;;;;;;;19.16;40.07;94621.03;4952952;28;20369;-70
2023/04/18 08:59:34;;;;;;;;;;;;;;;19.35;39.77;94619.94;4953139;28;20008;-69
2023/04/18 09:02:02;;;;;;;;;;;;;;;19.34;40.45;94615.75;4952601;28;19926;-63
2023/04/18 09:04:36;;;;;;;;;;;;;;;19.03;39.89;94619.34;4953639;28;20021;-64
2023/04/18 09:07:05;;;;;;;;;;;;;;;20.10;39.85;94617.31;4953042;29;19930;-65
2023/04/18 09:09:39;;;;;;;;;;;;;;;20.40;39.88;94620.78;4953024;29;19954;-67
2023/04/18 09:12:07;;;;;;;;;;;;;;;19.87;38.92;94614.13;4941112;28;20294;-68
2023/04/18 09:14:35;;;;;;;;;;;;;;;19.47;39.53;94620.09;4953318;28;19926;-63
2023/04/18 09:17:03;;;;;;;;;;;;;;;19.90;39.97;94607.41;4952219;29;19960;-63
2023/04/18 09:19:29;;;;;;;;;;;;;;;20.18;40.42;94619.19;4952783;28;20379;-64
2023/04/18 09:21:58;;;;;;;;;;;;;;;19.90;38.98;94620.69;4952370;28;19968;-67
2023/04/18 09:24:26;;;;;;;;;;;;;;;20.04;39.34;94607.94;4952758;28;20046;-66
2023/04/18 09:26:54;;;;;;;;;;;;;;;20.20;38.52;94616.97;4951976;28;19927;-66
2023/04/18 09:29:22;;;;;;;;;;;;;;;19.36;40.35;94621.50;4952814;29;19941;-64
2023/04/18 09:32:07;;;;;;;;;;;;;;;19.08;42.90;94624.50;4952157;28;19981;-67
2023/04/18 09:34:37;;;;;;;;;;;;;;;18.78;42.68;94627.31;4952848;29;19989;-64
2023/04/18 09:37:05;;;;;;;;;;;;;;;18.98;43.05;94624.81;4952040;29;20458;-69
2023/04/18 09:39:32;;;;;;;;;;;;;;;19.23;43.67;94619.78;4952251;28;19937;-65
2023/04/18 09:42:00;;;;;;;;;;;;;;;18.94;43.93;94623.13;4954321;29;19981;-62
2023/04/18 09:44:28;;;;;;;;;;;;;;;17.83;45.35;94629.00;4952635;29;19931;-66
2023/04/18 09:46:55;;;;;;;;;;;;;;;18.11;45.00;94621.59;4952314;29;20641;-67
2023/04/18 09:49:22;;;;;;;;;;;;;;;18.67;44.43;94618.88;4952559;28;20314;-63
2023/04/18 09:51:50;;;;;;;;;;;;;;;18.49;44.73;94614.66;4951909;29;19931;-66
2023/04/18 09:54:17;;;;;;;;;;;;;;;18.50;43.49;94618.91;4922564;29;19926;-65
2023/04/18 09:56:44;;;;;;;;;;;;;;;18.71;44.13;94613.72;4951769;28;19934;-64
2023/04/18 09:59:15;;;;;;;;;;;;;;;17.88;45.56;94617.47;4952177;29;19931;-65
2023/04/18 10:01:47;;;;;;;;;;;;;;;18.25;44.98;94616.19;4951337;28;19926;-68
2023/04/18 10:04:15;;;;;;;;;;;;;;;19.00;43.65;94611.22;4952323;29;19934;-67
2023/04/18 10:06:44;;;;;;;;;;;;;;;19.33;41.79;94614.16;4951958;28;19970;-70
2023/04/18 10:09:13;;;;;;;;;;;;;;;19.02;42.97;94609.03;4952364;29;19930;-70
2023/04/18 10:11:40;;;;;;;;;;;;;;;18.69;43.80;94611.41;4951330;29;20060;-66
2023/04/18 10:14:08;;;;;;;;;;;;;;;19.21;42.15;94604.16;4951833;28;20362;-63
2023/04/18 10:16:36;;;;;;;;;;;;;;;19.05;43.33;94605.75;4951160;28;19926;-66
2023/04/18 10:19:43;;;;;;;;;;;;;;;19.23;43.65;94603.84;4951953;28;19933;-69
2023/04/18 10:22:10;;;;;;;;;;;;;;;18.89;42.60;94600.16;4861547;29;19961;-66
2023/04/18 10:24:51;;;;;;;;;;;;;;;18.91;43.54;94602.47;4936842;29;19927;-66
2023/04/18 10:27:38;;;;;;;;;;;;;;;18.94;42.46;94605.28;4951362;28;19942;-65
2023/04/18 10:30:05;;;;;;;;;;;;;;;18.84;43.03;94608.28;4921392;28;20033;-66
2023/04/18 10:32:34;;;;;;;;;;;;;;;18.68;43.57;94598.44;4951446;28;19969;-65
2023/04/18 10:35:03;;;;;;;;;;;;;;;18.66;43.20;94590.00;4951855;28;19934;-62
2023/04/18 10:37:30;;;;;;;;;;;;;;;18.55;43.66;94600.16;4951294;28;19931;-67
2023/04/18 10:40:05;;;;;;;;;;;;;;;18.63;43.52;94596.72;4951921;28;20378;-68
2023/04/18 10:42:47;;;;;;;;;;;;;;;18.65;43.97;94594.53;4950888;29;20014;-68
2023/04/18 10:45:17;;;;;;;;;;;;;;;19.21;41.49;94590.88;4951908;28;20029;-66
2023/04/18 10:47:44;;;;;;;;;;;;;;;19.58;41.38;94594.72;4950709;28;19962;-68
2023/04/18 10:50:11;;;;;;;;;;;;;;;18.87;43.00;94589.06;4951274;29;19934;-64
2023/04/18 10:52:37;;;;;;;;;;;;;;;19.00;42.61;94590.75;4951138;28;20429;-69
2023/04/18 10:55:07;;;;;;;;;;;;;;;19.45;40.61;94590.38;4951625;28;20344;-62
2023/04/18 10:57:44;;;;;;;;;;;;;;;19.58;41.25;94584.09;4950642;28;19930;-68
2023/04/18 11:00:12;;;;;;;;;;;;;;;20.05;39.51;94582.94;4951519;28;20305;-65
2023/04/18 11:02:46;;;;;;;;;;;;;;;20.29;40.94;94588.44;4951183;29;19989;-65
2023/04/18 11:05:17;;;;;;;;;;;;;;;20.14;40.85;94583.66;4951561;29;19958;-64
2023/04/18 11:07:45;;;;;;;;;;;;;;;20.56;39.50;94577.31;4953672;29;19973;-64
2023/04/18 11:10:14;;;;;;;;;;;;;;;20.15;40.19;94583.34;4955109;29;19931;-63
2023/04/18 11:12:41;;;;;;;;;;;;;;;20.49;40.16;94569.03;4954950;29;20385;-63
2023/04/18 11:15:10;;;;;;;;;;;;;;;19.90;41.00;94570.19;4955170;29;19927;-65
2023/04/18 11:17:38;;;;;;;;;;;;;;;19.99;39.86;94573.56;4954385;28;20021;-66
2023/04/18 11:20:13;;;;;;;;;;;;;;;19.96;40.62;94566.25;4954864;29;19931;-68
2023/04/18 11:22:49;;;;;;;;;;;;;;;20.67;40.58;94551.06;4954646;28;19926;-65
2023/04/18 11:25:16;;;;;;;;;;;;;;;20.23;40.87;94554.34;4955054;28;19949;-63
2023/04/18 11:27:43;;;;;;;;;;;;;;;20.23;40.62;94552.50;4954330;28;19927;-68
2023/04/18 11:30:11;;;;;;;;;;;;;;;20.06;41.16;94555.22;4942386;29;20104;-66
2023/04/18 11:32:38;;;;;;;;;;;;;;;20.47;40.15;94557.97;4953920;28;20412;-67
2023/04/18 11:35:09;;;;;;;;;;;;;;;20.55;39.61;94570.41;4954902;28;20458;-67
2023/04/18 11:37:36;;;;;;;;;;;;;;;19.28;41.62;94563.84;4937415;29;19933;-64
2023/04/18 11:40:06;;;;;;;;;;;;;;;19.88;41.15;94559.06;4954984;29;19926;-64
2023/04/18 11:42:33;;;;;;;;;;;;;;;19.08;43.02;94566.09;4954081;29;19933;-62
2023/04/18 11:45:00;;;;;;;;;;;;;;;18.86;44.92;94574.25;4954630;28;20353;-69
2023/04/18 11:47:32;;;;;;;;;;;;;;;18.82;45.88;94578.59;4954642;29;19937;-66
2023/04/18 11:50:00;;;;;;;;;;;;;;;18.84;47.42;94581.72;4955307;28;20030;-67
2023/04/18 11:52:28;;;;;;;;;;;;;;;19.23;45.95;94574.63;4955045;29;19937;-65
2023/04/18 11:54:57;;;;;;;;;;;;;;;19.17;46.23;94576.69;4955483;28;19927;-64
2023/04/18 11:57:23;;;;;;;;;;;;;;;19.25;46.19;94581.16;4954205;29;19926;-67
2023/04/18 11:59:53;;;;;;;;;;;;;;;18.77;48.49;94570.81;4954616;29;19934;-68
2023/04/18 12:02:20;;;;;;;;;;;;;;;18.66;48.59;94555.50;4941228;28;19980;-65
2023/04/18 12:04:57;;;;;;;;;;;;;;;18.87;49.10;94581.09;4954761;28;20409;-68
2023/04/18 12:07:31;;;;;;;;;;;;;;;18.55;50.45;94578.94;4954176;28;19958;-69
2023/04/18 12:09:58;;;;;;;;;;;;;;;18.13;50.61;94590.25;4954194;29;20033;-66
2023/04/18 12:12:25;;;;;;;;;;;;;;;18.04;50.16;94584.94;4953548;28;19986;-63
2023/04/18 12:14:58;;;;;;;;;;;;;;;18.50;47.86;94581.75;4954114;29;20017;-65
2023/04/18 12:17:26;;;;;;;;;;;;;;;17.94;50.13;94579.13;4953172;28;19961;-67
2023/04/18 12:19:54;;;;;;;;;;;;;;;18.25;49.69;94579.03;4953929;28;19969;-69
2023/04/18 12:22:37;;;;;;;;;;;;;;;18.20;49.29;94570.16;4953744;29;19935;-67
2023/04/18 12:25:18;;;;;;;;;;;;;;;18.04;50.48;94574.34;4953892;28;20034;-68
2023/04/18 12:27:46;;;;;;;;;;;;;;;18.57;49.31;94565.34;4954057;28;19927;-65
2023/04/18 12:30:14;;;;;;;;;;;;;;;19.13;47.27;94571.22;4954364;29;19958;-69
2023/04/18 12:32:43;;;;;;;;;;;;;;;18.53;49.21;94578.47;4953197;28;20449;-66
2023/04/18 12:35:10;;;;;;;;;;;;;;;18.45;49.50;94579.22;4954017;28;20021;-69
2023/04/18 12:37:37;;;;;;;;;;;;;;;18.69;49.85;94576.09;4953452;28;20017;-66
2023/04/18 12:40:04;;;;;;;;;;;;;;;18.44;49.55;94572.38;4953602;29;19926;-68
2023/04/18 12:42:32;;;;;;;;;;;;;;;18.91;47.88;94576.72;4953243;29;20390;-68
2023/04/18 12:44:59;;;;;;;;;;;;;;;18.72;47.08;94576.25;4953339;29;20068;-66
2023/04/18 12:47:26;;;;;;;;;;;;;;;17.79;49.67;94582.22;4953487;28;19931;-72
2023/04/18 12:49:53;;;;;;;;;;;;;;;17.57;49.06;94585.69;4953741;28;20365;-72
2023/04/18 12:52:19;;;;;;;;;;;;;;;17.92;49.58;94591.91;4953015;28;19978;-69
2023/04/18 12:54:46;;;;;;;;;;;;;;;17.60;50.07;94589.63;4954014;28;19961;-65
2023/04/18 12:57:12;;;;;;;;;;;;;;;17.23;50.44;94591.59;4952711;28;20049;-68